Dearham, United Kingdom
Current Conditions -  °F | °C
As of 7:50 PM on Friday 19 Dec 2014 (Local Time) from EGOM Reporting Station
Rain Showers Rain Showers  
Wind Chill: 26°   Ceiling: 1400
Heat Index: 37°   Visibility: 6mi
Dew Point: 37°   Wind: 24mph
Humidity: 100%   Direction: 260°W
Pressure: 29.83"   Gusts: NA
Location:  54.71°N, 3.44°W
Report Text: EGOM 191950Z AUTO 26021KT 9999 SHRA SCT007/// BKN014/// 03/03 Q1010
Loading
Personal Weather Stations






























Interactive Weather Map New forecast layout! Learn more

10-Day Weather Forecast

Advertisements
Track Severe Weather on mobile